Time;durP1;ratioP1;P1;durP2;ratioP2;P2;SDS_P1;SDS_P2;PMS_P1;PMS_P2;Temp;Humidity;BMP_temperature;BMP_pressure;BME280_temperature;BME280_humidity;BME280_pressure;Samples;Min_cycle;Max_cycle;Signal;HPM_P1;HPM_P2
2022/11/09 05:12:06;;;;;;;30.10;11.82;;;;;;;7.53;100.00;100865.34;5217173;34;33302;-83
2022/11/09 05:15:08;;;;;;;25.42;11.80;;;;;;;7.59;100.00;100871.94;5219037;34;34336;-83
2022/11/09 05:18:11;;;;;;;22.30;11.02;;;;;;;7.56;100.00;100870.41;5218983;34;33980;-84
2022/11/09 05:21:15;;;;;;;27.48;11.15;;;;;;;7.54;100.00;100872.38;5219149;34;32680;-84
2022/11/09 05:24:17;;;;;;;28.70;12.65;;;;;;;7.55;100.00;100871.41;5219412;34;33897;-85
2022/11/09 05:27:20;;;;;;;28.92;11.80;;;;;;;7.59;100.00;100874.63;5207010;34;33868;-83
2022/11/09 05:30:23;;;;;;;28.40;12.65;;;;;;;7.63;100.00;100871.50;5222159;34;34732;-84
2022/11/09 05:33:26;;;;;;;28.23;11.73;;;;;;;7.76;100.00;100878.38;5239066;34;34462;-84
2022/11/09 05:36:29;;;;;;;26.95;11.93;;;;;;;7.72;100.00;100880.47;5236022;34;33027;-85
2022/11/09 05:39:32;;;;;;;30.98;13.27;;;;;;;7.66;100.00;100875.72;5217708;34;32284;-86
2022/11/09 05:42:39;;;;;;;27.58;12.65;;;;;;;7.66;100.00;100875.72;5227014;34;34312;-83
2022/11/09 05:45:42;;;;;;;32.92;13.10;;;;;;;7.65;100.00;100866.00;5234728;34;34451;-83
2022/11/09 05:48:46;;;;;;;28.35;13.02;;;;;;;7.59;100.00;100872.78;5233053;34;34029;-83
2022/11/09 05:51:49;;;;;;;30.80;12.00;;;;;;;7.61;100.00;100872.66;5248072;34;34010;-84
2022/11/09 05:54:51;;;;;;;30.20;12.75;;;;;;;7.45;100.00;100878.59;5236922;34;34257;-84
2022/11/09 05:57:54;;;;;;;29.12;12.70;;;;;;;7.50;100.00;100882.53;5236215;34;34008;-84
2022/11/09 06:00:58;;;;;;;29.63;12.18;;;;;;;7.49;100.00;100875.50;5238448;34;33964;-84
2022/11/09 06:04:01;;;;;;;28.73;12.00;;;;;;;7.52;100.00;100885.09;5234071;34;34764;-83
2022/11/09 06:07:04;;;;;;;31.70;12.05;;;;;;;7.47;100.00;100893.56;5227322;34;34282;-84
2022/11/09 06:10:08;;;;;;;26.98;11.70;;;;;;;7.45;100.00;100890.16;5223679;33;33945;-83
2022/11/09 06:13:11;;;;;;;27.73;11.95;;;;;;;7.42;100.00;100892.28;5187545;34;34248;-83
2022/11/09 06:16:14;;;;;;;29.98;12.68;;;;;;;7.47;100.00;100895.38;5196177;34;34416;-84
2022/11/09 06:19:16;;;;;;;26.73;11.73;;;;;;;7.45;100.00;100897.34;5194083;34;32002;-84
2022/11/09 06:22:19;;;;;;;27.33;12.85;;;;;;;7.53;100.00;100902.00;5209761;34;34973;-84
2022/11/09 06:25:21;;;;;;;28.33;11.90;;;;;;;7.60;100.00;100895.06;5200683;34;34015;-83
2022/11/09 06:28:24;;;;;;;36.65;13.82;;;;;;;7.61;100.00;100899.44;5203744;34;33939;-84
2022/11/09 06:31:27;;;;;;;33.78;12.15;;;;;;;7.50;100.00;100895.09;5201888;34;33954;-84
2022/11/09 06:34:30;;;;;;;27.30;12.10;;;;;;;7.54;100.00;100907.19;5201876;34;33797;-84
2022/11/09 06:37:33;;;;;;;28.58;11.55;;;;;;;7.47;100.00;100906.94;5201294;34;33891;-84
2022/11/09 06:40:36;;;;;;;27.83;12.00;;;;;;;7.35;100.00;100904.59;5203272;34;33953;-84
2022/11/09 06:43:38;;;;;;;24.80;11.52;;;;;;;7.46;100.00;100907.94;5200944;34;33872;-83
2022/11/09 06:46:41;;;;;;;30.35;11.80;;;;;;;7.42;100.00;100909.19;5201690;34;33974;-83
2022/11/09 06:49:44;;;;;;;28.48;11.35;;;;;;;7.37;100.00;100907.94;5202199;34;34788;-85
2022/11/09 06:52:46;;;;;;;26.90;11.43;;;;;;;7.43;100.00;100902.00;5202212;34;33549;-85
2022/11/09 06:55:49;;;;;;;27.70;11.77;;;;;;;7.45;100.00;100908.06;5189550;34;32326;-83
2022/11/09 06:58:52;;;;;;;26.12;11.52;;;;;;;7.41;100.00;100907.53;5195674;34;253923;-84
2022/11/09 07:01:55;;;;;;;30.10;10.52;;;;;;;7.40;100.00;100904.97;5200611;34;32632;-84
2022/11/09 07:05:03;;;;;;;25.92;11.18;;;;;;;7.48;100.00;100903.25;5202351;34;34812;-88
2022/11/09 07:08:06;;;;;;;29.23;10.63;;;;;;;7.49;100.00;100906.81;5201481;34;33644;-88
2022/11/09 07:11:12;;;;;;;25.42;10.65;;;;;;;7.61;100.00;100910.16;5199495;34;34372;-88
2022/11/09 07:14:15;;;;;;;26.92;11.23;;;;;;;7.70;100.00;100903.94;5185313;34;32787;-84
2022/11/09 07:17:17;;;;;;;23.33;10.60;;;;;;;7.72;100.00;100900.12;5200062;34;34441;-84
2022/11/09 07:20:20;;;;;;;21.62;9.82;;;;;;;7.75;100.00;100898.97;5203079;34;34508;-84
2022/11/09 07:23:23;;;;;;;24.95;10.77;;;;;;;7.81;100.00;100897.53;5202225;34;34726;-84
2022/11/09 07:26:26;;;;;;;24.30;10.75;;;;;;;7.83;100.00;100900.91;5188550;34;33446;-84
2022/11/09 07:29:29;;;;;;;21.12;11.68;;;;;;;7.94;100.00;100898.88;5206125;34;33984;-84
2022/11/09 07:32:36;;;;;;;25.33;11.20;;;;;;;7.92;100.00;100897.34;5211127;34;34099;-84
2022/11/09 07:36:00;;;;;;;27.23;12.68;;;;;;;8.00;100.00;100901.97;5189139;34;32406;-84
2022/11/09 07:39:05;;;;;;;29.63;11.23;;;;;;;8.15;100.00;100905.84;5201961;34;33939;-84
2022/11/09 07:42:08;;;;;;;24.63;11.12;;;;;;;8.17;100.00;100899.34;5200236;34;34692;-84
2022/11/09 07:45:15;;;;;;;24.60;10.90;;;;;;;8.25;100.00;100893.25;5214812;34;34665;-84
2022/11/09 07:48:17;;;;;;;23.05;11.27;;;;;;;8.45;100.00;100895.81;5200813;34;34779;-84
2022/11/09 07:51:20;;;;;;;29.52;12.48;;;;;;;8.43;100.00;100889.78;5201034;34;32876;-84
2022/11/09 07:54:24;;;;;;;27.62;12.80;;;;;;;8.57;100.00;100890.09;5200441;34;34070;-84
2022/11/09 07:57:27;;;;;;;28.10;12.43;;;;;;;8.32;100.00;100894.31;5201689;34;33688;-85
2022/11/09 08:00:32;;;;;;;29.75;12.37;;;;;;;8.34;100.00;100891.50;5199380;34;34175;-85
2022/11/09 08:03:35;;;;;;;30.45;12.75;;;;;;;8.33;100.00;100895.16;5201787;34;33982;-85
2022/11/09 08:06:37;;;;;;;29.65;12.65;;;;;;;8.42;100.00;100896.97;5200408;34;34749;-85
2022/11/09 08:09:40;;;;;;;33.80;13.52;;;;;;;8.28;100.00;100890.25;5199034;34;33181;-85
2022/11/09 08:12:43;;;;;;;30.42;12.75;;;;;;;8.30;100.00;100890.94;5201622;34;33446;-85
2022/11/09 08:15:46;;;;;;;25.77;12.07;;;;;;;8.25;100.00;100892.38;5199624;34;34101;-85
2022/11/09 08:18:49;;;;;;;28.45;12.65;;;;;;;8.25;100.00;100887.00;5199555;34;34114;-85
2022/11/09 08:21:56;;;;;;;35.33;13.30;;;;;;;8.28;100.00;100889.41;5199691;34;32422;-85
2022/11/09 08:24:58;;;;;;;34.25;12.57;;;;;;;8.48;100.00;100882.97;5191874;34;33281;-85
2022/11/09 08:28:02;;;;;;;30.12;13.40;;;;;;;8.38;100.00;100888.37;5199713;34;33647;-85
2022/11/09 08:31:06;;;;;;;30.20;13.93;;;;;;;8.43;100.00;100881.72;5201985;34;33574;-85
2022/11/09 08:34:13;;;;;;;34.22;13.35;;;;;;;8.49;100.00;100881.13;5200547;34;34862;-85
2022/11/09 08:37:15;;;;;;;31.85;13.90;;;;;;;8.59;100.00;100876.50;5198292;34;34099;-85
2022/11/09 08:40:24;;;;;;;32.65;12.18;;;;;;;8.65;100.00;100883.94;5199799;34;34489;-85
2022/11/09 08:43:26;;;;;;;36.03;13.20;;;;;;;8.61;100.00;100874.53;5202421;34;34866;-85
2022/11/09 08:46:29;;;;;;;33.95;13.73;;;;;;;8.66;100.00;100876.72;5200672;34;34617;-85
2022/11/09 08:49:32;;;;;;;31.83;13.07;;;;;;;8.66;100.00;100877.59;5199679;34;33923;-86
2022/11/09 08:52:35;;;;;;;32.40;13.07;;;;;;;8.79;100.00;100875.34;5202041;34;34643;-86
2022/11/09 08:55:37;;;;;;;34.22;14.00;;;;;;;8.84;100.00;100870.38;5201866;34;33634;-89
2022/11/09 08:58:40;;;;;;;33.97;14.18;;;;;;;8.73;100.00;100884.03;5199909;34;32650;-90
2022/11/09 09:01:42;;;;;;;34.20;13.88;;;;;;;8.72;100.00;100885.03;5199744;34;33769;-88
2022/11/09 09:04:45;;;;;;;37.53;15.55;;;;;;;8.80;100.00;100879.75;5201657;34;34282;-88
2022/11/09 09:07:48;;;;;;;34.58;14.98;;;;;;;8.80;100.00;100877.06;5205169;34;33998;-84
2022/11/09 09:10:51;;;;;;;41.78;15.40;;;;;;;8.69;100.00;100879.97;5201219;34;35020;-84
2022/11/09 09:13:53;;;;;;;40.58;14.87;;;;;;;8.71;100.00;100885.19;5201007;34;33899;-84
2022/11/09 09:16:56;;;;;;;38.80;15.45;;;;;;;8.78;100.00;100889.78;5197580;34;34587;-84
2022/11/09 09:19:59;;;;;;;41.63;16.42;;;;;;;8.83;100.00;100886.62;5201101;34;32459;-85
2022/11/09 09:23:01;;;;;;;42.40;16.92;;;;;;;8.88;100.00;100892.38;5203310;34;33970;-84
2022/11/09 09:26:04;;;;;;;36.63;16.00;;;;;;;8.92;100.00;100887.53;5209681;34;33565;-84
2022/11/09 09:29:10;;;;;;;37.70;15.23;;;;;;;8.96;100.00;100887.09;5201702;34;34379;-84
2022/11/09 09:32:13;;;;;;;39.35;16.15;;;;;;;8.94;100.00;100891.78;5201212;34;35507;-84
2022/11/09 09:35:16;;;;;;;39.60;17.17;;;;;;;9.04;100.00;100886.34;5206762;34;34036;-84
2022/11/09 09:38:18;;;;;;;42.75;17.95;;;;;;;8.84;100.00;100889.19;5215920;34;34068;-84
2022/11/09 09:41:28;;;;;;;42.28;18.62;;;;;;;9.01;100.00;100881.28;5207072;34;35431;-84
2022/11/09 09:44:36;;;;;;;46.10;18.48;;;;;;;9.06;100.00;100882.47;5201194;34;32826;-85
2022/11/09 09:47:57;;;;;;;43.87;18.37;;;;;;;9.06;100.00;100877.09;5203572;34;33998;-85
2022/11/09 09:51:09;;;;;;;43.05;19.20;;;;;;;9.14;100.00;100876.31;5208058;34;34663;-85
2022/11/09 09:54:18;;;;;;;51.53;19.20;;;;;;;9.04;100.00;100868.38;5203125;34;33862;-84
2022/11/09 09:57:23;;;;;;;47.63;18.93;;;;;;;9.15;100.00;100864.56;5205409;34;34475;-84
2022/11/09 10:00:27;;;;;;;44.97;17.83;;;;;;;9.07;100.00;100864.53;5206192;34;33647;-84
2022/11/09 10:03:30;;;;;;;43.60;18.65;;;;;;;9.08;100.00;100850.09;5202847;34;34458;-85
2022/11/09 10:06:39;;;;;;;46.45;19.65;;;;;;;9.11;100.00;100855.16;5202976;34;33636;-84
2022/11/09 10:10:20;;;;;;;50.05;19.08;;;;;;;9.23;100.00;100853.06;5201966;34;33460;-83
2022/11/09 10:13:50;;;;;;;46.78;20.48;;;;;;;9.16;100.00;100849.31;5189216;34;34432;-89
2022/11/09 10:17:05;;;;;;;;;;;;;;;9.25;100.00;100843.84;5198262;34;34117;-85
2022/11/09 10:21:09;;;;;;;49.28;19.70;;;;;;;9.30;100.00;100837.97;5202573;34;33957;-85
2022/11/09 10:24:30;;;;;;;45.92;18.92;;;;;;;9.37;100.00;100841.72;5195207;34;32436;-85
2022/11/09 10:27:36;;;;;;;45.90;20.23;;;;;;;9.36;100.00;100850.81;5204367;34;34881;-85
2022/11/09 10:30:40;;;;;;;49.67;20.65;;;;;;;9.36;100.00;100844.56;5199409;34;32526;-85
2022/11/09 10:33:47;;;;;;;48.10;20.67;;;;;;;9.43;100.00;100838.41;5203711;34;32865;-85
2022/11/09 10:37:11;;;;;;;52.72;20.75;;;;;;;9.42;100.00;100833.16;5200441;34;34353;-85
2022/11/09 10:40:21;;;;;;;47.10;20.20;;;;;;;9.46;100.00;100838.09;5198782;34;34194;-89
2022/11/09 10:43:42;;;;;;;44.88;21.62;;;;;;;9.44;100.00;100831.19;5201492;34;33393;-85
2022/11/09 10:47:13;;;;;;;48.67;21.35;;;;;;;9.49;100.00;100827.00;5212033;34;32693;-85
2022/11/09 10:50:39;;;;;;;44.88;22.27;;;;;;;9.61;100.00;100821.34;5207738;34;32489;-85
2022/11/09 10:54:20;;;;;;;45.72;19.45;;;;;;;9.64;100.00;100821.88;5208271;34;33346;-85
2022/11/09 10:57:58;;;;;;;46.65;20.52;;;;;;;9.51;100.00;100811.56;5203409;34;34082;-85
2022/11/09 11:01:22;;;;;;;45.80;19.30;;;;;;;9.34;100.00;100809.81;5202830;34;34042;-89
2022/11/09 11:04:43;;;;;;;43.08;19.27;;;;;;;9.30;100.00;100805.72;5205215;34;33947;-85
2022/11/09 11:08:23;;;;;;;42.88;19.92;;;;;;;9.36;100.00;100812.31;5201978;34;34705;-85
2022/11/09 11:11:44;;;;;;;;;;;;;;;9.40;100.00;100809.16;5204340;34;34405;-86
2022/11/09 11:15:28;;;;;;;43.22;18.98;;;;;;;9.36;100.00;100805.12;5204525;34;34297;-86
2022/11/09 11:18:49;;;;;;;44.50;18.05;;;;;;;9.47;100.00;100803.97;5215397;34;34261;-85
2022/11/09 11:22:10;;;;;;;44.35;19.45;;;;;;;9.45;100.00;100797.94;5213253;34;34184;-86
2022/11/09 11:25:32;;;;;;;43.25;19.02;;;;;;;9.45;100.00;100800.63;5215346;34;35440;-85
2022/11/09 11:29:00;;;;;;;50.10;19.20;;;;;;;9.48;100.00;100805.69;5212456;34;35257;-85
2022/11/09 11:32:22;;;;;;;45.33;20.25;;;;;;;9.50;100.00;100793.75;5213576;34;34120;-85
2022/11/09 11:36:08;;;;;;;40.90;19.87;;;;;;;9.49;100.00;100802.81;5198371;34;35363;-85
2022/11/09 11:39:50;;;;;;;41.05;19.23;;;;;;;9.48;100.00;100797.62;5201826;34;34331;-85
2022/11/09 11:43:30;;;;;;;48.08;20.90;;;;;;;9.50;100.00;100795.59;5209824;34;33279;-86
2022/11/09 11:47:00;;;;;;;54.15;20.60;;;;;;;9.41;100.00;100793.88;5201724;34;34780;-85
2022/11/09 11:50:40;;;;;;;46.53;19.50;;;;;;;9.44;100.00;100801.62;5204640;34;34117;-86
2022/11/09 11:54:12;;;;;;;48.90;20.00;;;;;;;9.39;100.00;100796.75;5210728;34;34956;-85
2022/11/09 11:57:47;;;;;;;50.15;20.20;;;;;;;9.34;100.00;100787.47;5205702;34;34226;-85
2022/11/09 12:01:37;;;;;;;45.55;20.77;;;;;;;9.19;100.00;100784.53;5204849;34;34511;-85
2022/11/09 12:05:36;;;;;;;43.67;19.77;;;;;;;9.30;100.00;100787.78;5197104;34;34311;-85
2022/11/09 12:09:33;;;;;;;43.05;19.23;;;;;;;9.29;100.00;100783.41;5201107;34;34750;-85
2022/11/09 12:13:10;;;;;;;46.78;19.90;;;;;;;9.35;100.00;100783.75;5210103;34;33933;-89
2022/11/09 12:17:02;;;;;;;45.40;19.27;;;;;;;9.26;100.00;100777.50;5188529;34;32081;-85
2022/11/09 12:20:59;;;;;;;50.38;21.98;;;;;;;9.26;100.00;100775.66;5201829;34;34131;-85
2022/11/09 12:24:45;;;;;;;45.35;20.42;;;;;;;9.32;100.00;100771.50;5178929;34;32573;-85
2022/11/09 12:28:41;;;;;;;44.00;19.83;;;;;;;9.44;100.00;100772.06;5209137;34;33377;-86
2022/11/09 12:32:24;;;;;;;46.50;22.10;;;;;;;9.37;100.00;100776.41;5211492;34;34148;-85
2022/11/09 12:36:37;;;;;;;43.45;20.08;;;;;;;9.33;100.00;100773.19;5204919;34;32745;-85
2022/11/09 12:40:11;;;;;;;47.80;21.00;;;;;;;9.30;100.00;100768.13;5171834;34;32698;-89
2022/11/09 12:43:36;;;;;;;49.30;20.88;;;;;;;9.35;100.00;100770.34;5194471;34;34690;-85
2022/11/09 12:47:05;;;;;;;45.90;20.10;;;;;;;9.39;100.00;100764.50;5194502;34;32833;-85
2022/11/09 12:50:28;;;;;;;42.83;20.20;;;;;;;9.34;100.00;100765.97;5193719;34;33632;-85
2022/11/09 12:53:48;;;;;;;49.95;21.30;;;;;;;9.40;100.00;100755.41;5195373;34;33688;-85
2022/11/09 12:57:28;;;;;;;45.33;20.45;;;;;;;9.48;100.00;100760.84;5195729;34;34845;-85
2022/11/09 13:00:53;;;;;;;42.28;20.20;;;;;;;9.51;100.00;100756.97;5195782;34;34446;-89
2022/11/09 13:04:17;;;;;;;44.97;21.48;;;;;;;9.47;100.00;100764.50;5194435;34;35140;-85
2022/11/09 13:07:48;;;;;;;47.58;22.52;;;;;;;9.49;100.00;100757.12;5195884;34;33997;-85
2022/11/09 13:11:18;;;;;;;48.90;21.45;;;;;;;9.61;100.00;100752.31;5198712;34;32578;-86
2022/11/09 13:14:40;;;;;;;54.42;22.83;;;;;;;9.44;100.00;100762.13;5202584;34;33716;-86
2022/11/09 13:18:39;;;;;;;52.42;21.95;;;;;;;9.41;100.00;100756.25;5193134;34;33502;-86
2022/11/09 13:22:14;;;;;;;51.78;22.77;;;;;;;9.38;100.00;100753.88;5193060;34;33837;-86
2022/11/09 13:25:43;;;;;;;49.08;21.40;;;;;;;9.35;100.00;100754.22;5202548;34;32950;-86
2022/11/09 13:29:22;;;;;;;55.25;23.80;;;;;;;9.30;100.00;100750.16;5203354;34;35437;-86
2022/11/09 13:33:06;;;;;;;51.83;23.38;;;;;;;9.40;100.00;100743.84;5196062;34;34737;-85
2022/11/09 13:36:27;;;;;;;51.70;22.70;;;;;;;9.30;100.00;100743.94;5203304;34;34425;-86
2022/11/09 13:39:48;;;;;;;50.80;22.27;;;;;;;9.31;100.00;100741.09;5203236;34;34397;-87
2022/11/09 13:43:09;;;;;;;58.25;24.25;;;;;;;9.31;100.00;100746.47;5197472;34;34755;-85
2022/11/09 13:46:37;;;;;;;58.90;23.75;;;;;;;9.14;100.00;100751.94;5200976;34;34733;-85
2022/11/09 13:49:58;;;;;;;62.88;24.30;;;;;;;9.20;100.00;100748.59;5194168;34;33225;-86
2022/11/09 13:53:29;;;;;;;56.80;23.02;;;;;;;9.12;100.00;100746.69;5186808;34;32258;-85
2022/11/09 13:56:51;;;;;;;55.22;23.50;;;;;;;9.12;100.00;100735.13;5200513;34;33933;-86
2022/11/09 14:00:22;;;;;;;59.78;24.65;;;;;;;9.16;100.00;100741.87;5200198;34;34146;-86
2022/11/09 14:03:50;;;;;;;67.65;25.25;;;;;;;9.16;100.00;100739.19;5197983;34;33970;-87
2022/11/09 14:07:11;;;;;;;61.42;23.52;;;;;;;9.14;100.00;100739.34;5200816;34;34441;-86
2022/11/09 14:10:45;;;;;;;56.37;25.55;;;;;;;9.16;100.00;100741.87;5191535;34;32793;-86
2022/11/09 14:14:12;;;;;;;61.85;26.05;;;;;;;9.11;100.00;100739.66;5197166;34;34736;-86
2022/11/09 14:17:40;;;;;;;57.53;24.67;;;;;;;9.09;100.00;100745.16;5199599;34;34688;-86
2022/11/09 14:21:19;;;;;;;57.25;25.33;;;;;;;9.08;100.00;100748.03;5197783;34;33024;-86
2022/11/09 14:24:41;;;;;;;59.97;25.20;;;;;;;9.08;100.00;100745.34;5195424;34;33140;-86
2022/11/09 14:28:19;;;;;;;59.88;25.70;;;;;;;9.07;100.00;100747.19;5203195;34;33277;-86
2022/11/09 14:31:43;;;;;;;52.70;23.12;;;;;;;9.03;100.00;100747.66;5201249;34;31800;-87
2022/11/09 14:35:19;;;;;;;61.90;26.17;;;;;;;8.93;100.00;100745.09;5197140;34;33748;-86
2022/11/09 14:38:46;;;;;;;68.78;28.35;;;;;;;8.93;100.00;100739.72;5200507;34;34338;-85
2022/11/09 14:42:16;;;;;;;59.33;27.58;;;;;;;8.91;100.00;100733.66;5202603;34;33425;-87
2022/11/09 14:45:50;;;;;;;60.53;25.10;;;;;;;9.07;100.00;100736.44;5211010;34;35039;-86
2022/11/09 14:49:12;;;;;;;68.45;26.73;;;;;;;8.99;100.00;100735.56;5199198;34;33727;-86
2022/11/09 14:52:33;;;;;;;58.40;24.85;;;;;;;8.92;100.00;100743.41;5201427;34;33569;-86
2022/11/09 14:55:58;;;;;;;76.93;27.58;;;;;;;8.92;100.00;100743.41;5200046;34;33531;-87
2022/11/09 14:59:46;;;;;;;61.72;24.55;;;;;;;8.93;100.00;100744.25;5199069;34;33982;-86
2022/11/09 15:03:26;;;;;;;60.50;27.23;;;;;;;8.99;100.00;100740.94;5204009;34;34061;-86
2022/11/09 15:06:56;;;;;;;63.35;24.65;;;;;;;9.01;100.00;100747.00;5214982;34;32647;-86
2022/11/09 15:10:19;;;;;;;56.60;24.30;;;;;;;8.88;100.00;100744.72;5201405;34;35002;-86
2022/11/09 15:13:41;;;;;;;63.63;25.45;;;;;;;8.88;100.00;100736.66;5202853;34;34741;-86
2022/11/09 15:17:14;;;;;;;56.88;24.20;;;;;;;8.87;100.00;100745.72;5201279;34;32749;-86
2022/11/09 15:20:35;;;;;;;57.25;24.67;;;;;;;8.85;100.00;100745.87;5204789;34;35340;-86
2022/11/09 15:24:07;;;;;;;56.33;24.40;;;;;;;8.87;100.00;100752.94;5214566;34;35390;-86
2022/11/09 15:27:32;;;;;;;59.60;23.60;;;;;;;8.86;100.00;100749.37;5201074;34;32457;-86
2022/11/09 15:30:53;;;;;;;53.35;23.10;;;;;;;8.80;100.00;100745.53;5195415;34;34027;-86
2022/11/09 15:34:21;;;;;;;55.95;24.75;;;;;;;8.79;100.00;100749.19;5203706;34;34373;-86
2022/11/09 15:37:42;;;;;;;58.65;24.33;;;;;;;8.82;100.00;100753.41;5203675;34;34133;-86
2022/11/09 15:41:24;;;;;;;57.88;25.65;;;;;;;8.85;100.00;100753.09;5201043;34;32501;-86
2022/11/09 15:44:49;;;;;;;59.05;23.65;;;;;;;8.88;100.00;100749.25;5194984;34;33938;-86
2022/11/09 15:48:10;;;;;;;61.13;25.27;;;;;;;8.86;100.00;100744.00;5202078;34;33685;-90
2022/11/09 15:51:31;;;;;;;51.75;24.12;;;;;;;8.80;100.00;100741.97;5200824;34;33238;-86
2022/11/09 15:54:52;;;;;;;59.13;24.33;;;;;;;8.89;100.00;100742.88;5202423;34;33936;-86
2022/11/09 15:58:16;;;;;;;56.13;23.67;;;;;;;8.80;100.00;100740.16;5189877;34;32559;-86
2022/11/09 16:01:38;;;;;;;52.13;24.23;;;;;;;8.85;100.00;100743.19;5202580;34;34268;-86
2022/11/09 16:05:00;;;;;;;56.00;24.00;;;;;;;8.87;100.00;100737.66;5200560;34;34165;-86
2022/11/09 16:08:21;;;;;;;56.00;24.70;;;;;;;8.87;100.00;100731.47;5209081;34;33754;-86
2022/11/09 16:11:43;;;;;;;52.85;23.62;;;;;;;8.84;100.00;100748.72;5205459;34;33967;-86
2022/11/09 16:15:05;;;;;;;52.03;23.55;;;;;;;8.86;100.00;100752.06;5205772;34;34209;-87
2022/11/09 16:18:26;;;;;;;51.25;21.40;;;;;;;8.85;100.00;100753.09;5200592;34;33863;-86
2022/11/09 16:21:50;;;;;;;53.63;23.45;;;;;;;8.83;100.00;100747.88;5200493;34;32326;-86
2022/11/09 16:25:13;;;;;;;54.67;22.17;;;;;;;8.87;100.00;100752.94;5194613;34;34006;-86
2022/11/09 16:28:36;;;;;;;52.72;22.50;;;;;;;8.84;100.00;100748.72;5186166;34;34027;-86
2022/11/09 16:31:57;;;;;;;58.90;23.40;;;;;;;8.86;100.00;100752.06;5187578;34;34003;-86
2022/11/09 16:35:18;;;;;;;51.95;22.92;;;;;;;8.83;100.00;100753.25;5203055;34;33970;-86
2022/11/09 16:38:52;;;;;;;54.72;24.50;;;;;;;8.88;100.00;100757.31;5206200;34;34129;-86
2022/11/09 16:42:16;;;;;;;57.70;22.73;;;;;;;8.98;100.00;100749.97;5193930;34;34102;-87
2022/11/09 16:45:45;;;;;;;53.83;22.10;;;;;;;8.96;100.00;100754.69;5203475;34;35857;-86
2022/11/09 16:49:06;;;;;;;48.80;23.00;;;;;;;8.97;100.00;100742.91;5200932;34;32754;-86
2022/11/09 16:52:28;;;;;;;59.63;23.42;;;;;;;8.98;100.00;100748.16;5201184;34;34551;-86
2022/11/09 16:55:50;;;;;;;55.83;24.08;;;;;;;8.95;100.00;100745.78;5182251;34;32485;-86
2022/11/09 16:59:11;;;;;;;59.83;26.08;;;;;;;8.98;100.00;100750.84;5190468;34;32544;-86
2022/11/09 17:02:34;;;;;;;52.45;22.62;;;;;;;9.00;100.00;100747.97;5202671;34;32541;-86
